Flight Track Log - Related Links

Times and Time Zones

All times are in EDT time to prevent confusion due to time zone crossing. See the SKW6280 flight status page for this flight to view local times or setup timezone preferences in your user account.

Time Position Orientation Groundspeed Altitude Reporting Facility
EDT Latitude Longitude Course Direction KTS MPH feet Rate Location/Type
Sun 12:25:00 PM 39.9697 -104.0527 77° East  Level Estimated
Sun 12:26:00 PM 39.9961 -103.8973 77° East  Level Estimated
Sun 12:27:00 PM 40.0224 -103.7417 78° East  Level Estimated
Sun 12:28:00 PM 40.0485 -103.5861 78° East  Level Estimated
Sun 12:29:00 PM 40.0743 -103.4303 78° East  Level Estimated
Sun 12:30:00 PM 40.1000 -103.2744 78° East  Level Estimated
Sun 12:31:00 PM 40.1254 -103.1184 78° East  Level Estimated
Sun 12:32:00 PM 40.1507 -102.9623 78° East  Level Estimated
Sun 12:33:00 PM 40.1757 -102.8060 78° East  Level Estimated
Sun 12:34:00 PM 40.2005 -102.6497 78° East  Level Estimated
Sun 12:35:00 PM 40.2251 -102.4932 78° East  Level Estimated
Sun 12:36:00 PM 40.2495 -102.3366 78° East  Level Estimated
Sun 12:37:00 PM 40.2737 -102.1799 79° East  Level Estimated
Sun 12:38:00 PM 40.2976 -102.0231 79° East  Level Estimated
Sun 12:39:00 PM 40.3214 -101.8662 79° East  Level Estimated
Sun 12:40:00 PM 40.3449 -101.7091 79° East  Level Estimated
Sun 12:41:00 PM 40.3682 -101.5520 79° East  Level Estimated
Sun 12:42:00 PM 40.3913 -101.3948 79° East  Level Estimated
Sun 12:43:00 PM 40.4142 -101.2374 79° East  Level Estimated
Sun 12:44:00 PM 40.4369 -101.0799 79° East  Level Estimated
Sun 12:45:00 PM 40.4594 -100.9224 79° East  Level Estimated
Sun 12:46:00 PM 40.4817 -100.7647 79° East  Level Estimated
Sun 12:47:00 PM 40.5037 -100.6069 80° East  Level Estimated
Sun 12:48:00 PM 40.5256 -100.4490 80° East  Level Estimated
Sun 12:49:00 PM 40.5472 -100.2911 80° East  Level Estimated
Sun 12:50:00 PM 40.5686 -100.1330 80° East  Level Estimated
Sun 12:51:00 PM 40.5898 -99.9748 80° East  Level Estimated
Sun 12:52:00 PM 40.6107 -99.8165 80° East  Level Estimated
Sun 12:53:00 PM 40.6315 -99.6581 80° East  Level Estimated
Sun 12:54:00 PM 40.6520 -99.4996 80° East  Level Estimated
Sun 12:55:00 PM 40.6723 -99.3410 80° East  Level Estimated
Sun 12:56:00 PM 40.6924 -99.1824 80° East  Level Estimated
Sun 12:57:00 PM 40.7123 -99.0236 81° East  Level Estimated
Sun 12:58:00 PM 40.7320 -98.8647 81° East  Level Estimated
Sun 12:59:00 PM 40.7514 -98.7058 81° East  Level Estimated
Sun 01:00:00 PM 40.7707 -98.5467 81° East  Level Estimated
Sun 01:01:00 PM 40.7897 -98.3876 81° East  Level Estimated
Sun 01:02:00 PM 40.8085 -98.2283 81° East  Level Estimated
Sun 01:03:00 PM 40.8271 -98.0690 81° East  Level Estimated
Sun 01:04:00 PM 40.8454 -97.9096 81° East  Level Estimated
Sun 01:05:00 PM 40.8636 -97.7501 81° East  Level Estimated
Sun 01:06:00 PM 40.8815 -97.5905 82° East  Level Estimated
Sun 01:07:00 PM 40.8992 -97.4308 82° East  Level Estimated
Sun 01:08:00 PM 40.9167 -97.2711 82° East  Level Estimated
Sun 01:09:00 PM 40.9339 -97.1113 82° East  Level Estimated
Sun 01:10:00 PM 40.9510 -96.9513 82° East  Level Estimated
Sun 01:11:00 PM 40.9678 -96.7913 82° East  Level Estimated
Sun 01:12:00 PM 40.9843 -96.6312 82° East  Level Estimated
Sun 01:13:00 PM 41.0007 -96.4711 82° East  Level Estimated
Sun 01:14:00 PM 41.0169 -96.3108 82° East  Level Estimated
Sun 01:15:00 PM 41.0328 -96.1505 82° East  Level Estimated
Sun 01:16:00 PM 41.0485 -95.9901 83° East  Level Estimated
Sun 01:17:00 PM 41.0640 -95.8296 83° East  Level Estimated
Sun 01:18:00 PM 41.0792 -95.6691 83° East  Level Estimated
Sun 01:19:00 PM 41.0943 -95.5084 83° East  Level Estimated
Sun 01:20:00 PM 41.1091 -95.3477 83° East  Level Estimated
Sun 01:21:00 PM 41.1237 -95.1870 83° East  Level Estimated
Sun 01:22:00 PM 41.1381 -95.0261 83° East  Level Estimated
Sun 01:23:00 PM 41.1522 -94.8652 83° East  Level Estimated
Sun 01:24:00 PM 41.1661 -94.7042 83° East  Level Estimated
Sun 01:25:00 PM 41.1798 -94.5432 84° East  Level Estimated
Sun 01:26:00 PM 41.1933 -94.3821 84° East  Level Estimated
Sun 01:27:00 PM 41.2065 -94.2209 84° East  Level Estimated
Sun 01:28:00 PM 41.2195 -94.0596 84° East  Level Estimated
Sun 01:29:00 PM 41.2323 -93.8983 84° East  Level Estimated
Sun 01:30:00 PM 41.2449 -93.7370 84° East  Level Estimated
Sun 01:31:00 PM 41.2573 -93.5755 84° East  Level Estimated
Sun 01:32:00 PM 41.2694 -93.4140 84° East  Level Estimated
Sun 01:33:00 PM 41.2813 -93.2525 84° East  Level Estimated
Sun 01:34:00 PM 41.2929 -93.0909 84° East  Level Estimated
Sun 01:35:00 PM 41.3044 -92.9292 85° East  Level Estimated
Sun 01:36:00 PM 41.3156 -92.7675 85° East  Level Estimated
Sun 01:37:00 PM 41.3266 -92.6057 85° East  Level Estimated
Sun 01:38:00 PM 41.3373 -92.4438 85° East  Level Estimated
Sun 01:39:00 PM 41.3479 -92.2820 85° East  Level Estimated
Sun 01:40:00 PM 41.3582 -92.1200 85° East  Level Estimated
Sun 01:41:00 PM 41.3683 -91.9580 85° East  Level Estimated
Sun 01:42:00 PM 41.3781 -91.7960 85° East  Level Estimated
Sun 01:43:00 PM 41.3877 -91.6339 85° East  Level Estimated
Sun 01:44:00 PM 41.3971 -91.4718 86° East  Level Estimated
Sun 01:45:00 PM 41.4063 -91.3096 86° East  Level Estimated
Sun 01:46:00 PM 41.4152 -91.1473 86° East  Level Estimated
Sun 01:47:00 PM 41.4240 -90.9851 86° East  Level Estimated
Sun 01:48:00 PM 41.4325 -90.8228 86° East  Level Estimated
Sun 01:49:00 PM 41.4407 -90.6604 86° East  Level Estimated
Sun 01:50:00 PM 41.4483 -90.5075 86° East  Level Estimated
Sun 01:51:00 PM 41.4483 -90.5075 181° South  Level Estimated
Sun 01:52:00 PM 41.4483 -90.5075 181° South  Level Estimated
Sun 01:53:00 PM 41.4483 -90.5075 181° South  Level Estimated
Sun 01:54:00 PM 41.4483 -90.5075 181° South  Level Estimated
Sun 01:55:00 PM 41.4483 -90.5075 181° South  Level Estimated
Sun 01:56:00 PM 41.4483 -90.5075 181° South  Level Estimated
Sun 01:57:00 PM 41.4483 -90.5075 181° South  Level Estimated
Sun 01:58:00 PM 41.4483 -90.5075 181° South  Level Estimated
Sun 01:59:00 PM 41.4483 -90.5075 181° South  Level Estimated

Login

Don't have an account? Register now (free) for customized features, flight alerts, and more!